Time;durP1;ratioP1;P1;durP2;ratioP2;P2;SDS_P1;SDS_P2;PMS_P1;PMS_P2;Temp;Humidity;BMP_temperature;BMP_pressure;BME280_temperature;BME280_humidity;BME280_pressure;Samples;Min_cycle;Max_cycle;Signal;HPM_P1;HPM_P2
2022/04/06 00:00:20;;;;;;;8.00;6.87;;;6.00;99.90;6.70;93373.00;;;;7394969;19;20475;-80
2022/04/06 00:02:47;;;;;;;8.43;7.07;;;6.00;99.90;6.80;93366.00;;;;7394322;19;20449;-80
2022/04/06 00:05:14;;;;;;;8.17;7.03;;;6.00;99.90;6.80;93330.00;;;;7393302;19;20133;-79
2022/04/06 00:07:47;;;;;;;8.07;6.70;;;6.00;99.90;6.70;93363.00;;;;7393148;19;20136;-79
2022/04/06 00:10:15;;;;;;;7.90;7.10;;;6.00;99.90;6.80;93317.00;;;;7392102;19;20592;-78
2022/04/06 00:12:42;;;;;;;7.47;6.67;;;6.00;99.90;6.70;93336.00;;;;7393007;19;20129;-77
2022/04/06 00:15:16;;;;;;;7.30;6.60;;;6.00;99.90;6.70;93305.00;;;;7393572;19;20129;-77
2022/04/06 00:17:43;;;;;;;8.67;7.13;;;6.00;99.90;6.80;93324.00;;;;7394559;19;20121;-78
2022/04/06 00:20:11;;;;;;;7.03;6.30;;;6.10;99.90;6.80;93317.00;;;;7393245;19;20607;-77
2022/04/06 00:22:45;;;;;;;6.73;6.00;;;6.10;99.90;6.80;93343.00;;;;7393511;19;20136;-78
2022/04/06 00:25:12;;;;;;;7.43;6.60;;;6.10;99.90;6.80;93312.00;;;;7393482;19;20451;-78
2022/04/06 00:27:39;;;;;;;8.07;6.80;;;6.10;99.90;6.90;93305.00;;;;7391536;19;20141;-78
2022/04/06 00:30:12;;;;;;;7.03;6.33;;;6.10;99.90;6.90;93302.00;;;;7392881;19;20149;-77
2022/04/06 00:32:39;;;;;;;7.77;6.47;;;6.10;99.90;6.90;93338.00;;;;7393628;19;20488;-78
2022/04/06 00:38:06;;;;;;;6.57;5.17;;;6.10;99.90;7.00;93314.00;;;;7393560;19;20991;-77
2022/04/06 00:40:36;;;;;;;9.30;5.97;;;6.10;99.90;7.00;93343.00;;;;7392513;19;20731;-78
2022/04/06 00:43:12;;;;;;;6.77;6.03;;;6.10;99.90;7.00;93314.00;;;;7394310;19;20125;-77
2022/04/06 00:45:42;;;;;;;5.57;4.97;;;6.20;99.90;7.10;93319.00;;;;7392514;19;20211;-79
2022/04/06 00:48:10;;;;;;;5.40;4.73;;;6.20;99.90;7.00;93298.00;;;;7390472;19;20154;-79
2022/04/06 00:50:45;;;;;;;6.37;4.80;;;6.20;36.40;6.90;93277.00;;;;7392519;19;20466;-77
2022/04/06 00:53:24;;;;;;;5.97;5.10;;;6.20;22.40;7.00;93273.00;;;;7391224;19;20482;-78
2022/04/06 00:55:58;;;;;;;5.47;4.33;;;6.20;19.50;7.10;93268.00;;;;7392419;19;20143;-78
2022/04/06 00:58:26;;;;;;;5.90;4.90;;;6.20;1.00;7.00;93281.00;;;;7389961;19;20584;-78
2022/04/06 01:00:53;;;;;;;8.20;5.00;;;6.30;1.00;7.00;93288.00;;;;7393094;19;20174;-77
2022/04/06 01:03:27;;;;;;;5.73;4.70;;;6.30;1.00;7.10;93281.00;;;;7392019;19;20521;-77
2022/04/06 01:05:54;;;;;;;8.80;4.53;;;6.40;1.00;7.20;93281.00;;;;7391787;19;20232;-76
2022/04/06 01:08:23;;;;;;;5.37;4.37;;;6.40;1.00;7.10;93261.00;;;;7391809;19;20595;-77
2022/04/06 01:10:58;;;;;;;6.87;4.40;;;6.40;1.00;7.20;93286.00;;;;7392251;19;20136;-76
2022/04/06 01:13:27;;;;;;;5.60;4.63;;;6.50;1.00;7.30;93308.00;;;;7396553;19;20144;-76
2022/04/06 01:15:55;;;;;;;5.37;4.07;;;6.50;1.00;7.40;93270.00;;;;7392931;19;20128;-76
2022/04/06 01:18:32;;;;;;;5.40;4.40;;;6.50;1.00;7.30;93283.00;;;;7392368;19;20176;-75
2022/04/06 01:20:59;;;;;;;4.63;4.10;;;6.40;1.00;7.30;93273.00;;;;7391287;19;20133;-76
2022/04/06 01:23:26;;;;;;;7.27;4.57;;;6.40;1.00;7.30;93308.00;;;;7391980;19;20617;-77
2022/04/06 01:26:00;;;;;;;4.80;4.23;;;6.50;1.00;7.30;93272.00;;;;7393062;19;20121;-77
2022/04/06 01:28:27;;;;;;;5.33;4.20;;;6.50;1.00;7.20;93277.00;;;;7389419;19;20137;-76
2022/04/06 01:30:54;;;;;;;4.43;3.93;;;6.40;1.00;7.20;93274.00;;;;7390530;19;20629;-76
2022/04/06 01:33:29;;;;;;;6.13;4.10;;;6.40;1.00;7.10;93294.00;;;;7392441;19;20461;-76
2022/04/06 01:35:58;;;;;;;4.40;4.00;;;6.40;1.00;7.00;93300.00;;;;7390975;19;20626;-77
2022/04/06 01:38:26;;;;;;;4.97;4.20;;;6.40;1.00;7.20;93287.00;;;;7389855;19;20125;-75
2022/04/06 01:41:00;;;;;;;5.70;4.40;;;6.40;1.00;7.20;93276.00;;;;7390766;19;20148;-77
2022/04/06 01:43:27;;;;;;;5.63;4.20;;;6.50;1.00;7.10;93292.00;;;;7390793;19;20125;-76
2022/04/06 01:45:54;;;;;;;5.70;4.87;;;6.40;1.00;7.20;93304.00;;;;7390232;19;20144;-76
2022/04/06 01:48:28;;;;;;;5.00;4.10;;;6.30;1.00;7.20;93272.00;;;;7388408;19;20148;-75
2022/04/06 01:53:54;;;;;;;5.20;3.90;;;6.40;1.00;7.00;93286.00;;;;7390195;19;20172;-75
2022/04/06 01:56:21;;;;;;;5.30;4.37;;;6.20;1.00;6.90;93261.00;;;;7389792;19;20588;-76
2022/04/06 01:58:55;;;;;;;6.20;4.10;;;6.20;1.00;7.00;93262.00;;;;7389793;19;20182;-77
2022/04/06 02:01:22;;;;;;;6.00;4.77;;;6.30;1.00;7.10;93277.00;;;;7390693;19;20580;-76
2022/04/06 02:03:49;;;;;;;6.13;4.20;;;6.30;11.80;6.80;93264.00;;;;7389820;19;20159;-75
2022/04/06 02:06:23;;;;;;;6.73;4.40;;;6.20;38.70;6.80;93264.00;;;;7389608;19;20524;-76
2022/04/06 02:08:50;;;;;;;4.47;4.03;;;6.20;60.40;6.90;93287.00;;;;7389461;19;20129;-74
2022/04/06 02:11:17;;;;;;;5.47;4.10;;;6.20;99.90;6.80;93269.00;;;;7396959;19;20237;-74
2022/04/06 02:13:51;;;;;;;5.43;4.67;;;6.10;99.90;6.80;93265.00;;;;7396703;19;20121;-75
2022/04/06 02:16:18;;;;;;;4.83;4.27;;;6.10;99.90;6.90;93273.00;;;;7397782;19;20600;-75
2022/04/06 02:18:45;;;;;;;5.97;4.87;;;6.10;99.90;6.80;93255.00;;;;7397156;19;20644;-76
2022/04/06 02:21:18;;;;;;;6.00;4.50;;;6.10;99.90;6.80;93250.00;;;;7398091;19;20133;-75
2022/04/06 02:23:45;;;;;;;5.80;4.80;;;6.10;99.90;6.80;93268.00;;;;7398167;19;20501;-75
2022/04/06 02:26:12;;;;;;;8.27;4.63;;;6.10;99.90;6.70;93236.00;;;;7396941;19;20125;-74
2022/04/06 02:28:46;;;;;;;6.87;4.70;;;6.00;99.90;6.70;93249.00;;;;7394044;19;20141;-75
2022/04/06 02:31:13;;;;;;;6.10;4.70;;;6.00;99.90;6.60;93248.00;;;;7396571;19;20176;-76
2022/04/06 02:33:41;;;;;;;7.80;4.43;;;6.00;1.00;6.60;93248.00;;;;7397102;19;20148;-76
2022/04/06 02:36:15;;;;;;;6.53;4.93;;;6.00;1.00;6.60;93252.00;;;;7396722;19;20145;-76
2022/04/06 02:38:42;;;;;;;7.20;5.40;;;6.00;1.00;6.60;93270.00;;;;7397408;19;20140;-77
2022/04/06 02:41:09;;;;;;;6.80;5.30;;;6.00;1.00;6.60;93245.00;;;;7397354;19;20498;-76
2022/04/06 02:43:42;;;;;;;8.33;4.60;;;6.00;1.00;6.70;93236.00;;;;7397640;19;20132;-75
2022/04/06 02:46:10;;;;;;;6.70;4.93;;;5.90;1.00;6.50;93228.00;;;;7395397;19;20588;-76
2022/04/06 02:48:37;;;;;;;6.60;5.20;;;5.90;1.00;6.50;93231.00;;;;7394941;19;20132;-76
2022/04/06 02:51:12;;;;;;;10.47;5.47;;;5.90;1.00;6.40;93261.00;;;;7397893;19;20602;-76
2022/04/06 02:53:45;;;;;;;8.83;5.20;;;5.90;1.00;6.40;93251.00;;;;7394728;19;20125;-76
2022/04/06 02:56:28;;;;;;;6.47;5.47;;;5.90;1.00;6.50;93237.00;;;;7395713;19;20614;-75
2022/04/06 02:58:55;;;;;;;9.00;4.83;;;5.80;1.00;6.40;93220.00;;;;7398366;19;20145;-78
2022/04/06 03:01:31;;;;;;;7.17;5.17;;;5.80;1.00;6.40;93254.00;;;;7396090;19;20128;-77
2022/04/06 03:03:58;;;;;;;7.57;5.57;;;5.80;1.00;6.30;93219.00;;;;7397233;19;20204;-77
2022/04/06 03:06:26;;;;;;;10.17;5.13;;;5.80;1.00;6.30;93216.00;;;;7396090;19;20178;-77
2022/04/06 03:08:59;;;;;;;6.30;5.43;;;5.80;1.00;6.30;93214.00;;;;7393452;19;20161;-76
2022/04/06 03:11:26;;;;;;;6.67;5.10;;;5.80;1.00;6.40;93210.00;;;;7395236;19;20970;-76
2022/04/06 03:13:54;;;;;;;7.73;5.40;;;5.80;1.00;6.40;93214.00;;;;7396030;19;20125;-78
2022/04/06 03:16:28;;;;;;;6.73;5.40;;;5.80;1.00;6.40;93220.00;;;;7395759;19;20137;-77
2022/04/06 03:18:55;;;;;;;9.20;5.40;;;5.70;1.00;6.30;93209.00;;;;7394904;19;20137;-76
2022/04/06 03:21:22;;;;;;;7.43;5.40;;;5.70;1.00;6.40;93200.00;;;;7393603;19;20148;-76
2022/04/06 03:23:56;;;;;;;7.73;5.20;;;5.70;1.00;6.40;93241.00;;;;7397294;19;20170;-77
2022/04/06 03:26:24;;;;;;;8.13;5.83;;;5.70;1.00;6.40;93230.00;;;;7394551;19;20602;-75
2022/04/06 03:28:51;;;;;;;8.50;6.13;;;5.70;1.00;6.50;93209.00;;;;7392492;19;20143;-77
2022/04/06 03:31:25;;;;;;;8.93;6.20;;;5.70;4.10;6.50;93203.00;;;;7396146;19;20155;-76
2022/04/06 03:33:52;;;;;;;8.17;6.23;;;5.70;15.90;6.40;93193.00;;;;7394277;19;20141;-75
2022/04/06 03:36:19;;;;;;;6.70;5.70;;;5.70;29.50;6.40;93201.00;;;;7394188;19;20168;-77
2022/04/06 03:38:52;;;;;;;8.27;5.47;;;5.70;39.40;6.40;93173.00;;;;7395484;19;20196;-76
2022/04/06 03:41:20;;;;;;;10.70;6.07;;;5.70;55.40;6.40;93202.00;;;;7394121;19;20144;-76
2022/04/06 03:43:47;;;;;;;10.67;6.47;;;5.70;74.30;6.30;93217.00;;;;7393900;19;20785;-76
2022/04/06 03:46:21;;;;;;;7.67;5.67;;;5.70;91.60;6.40;93228.00;;;;7395076;19;20154;-76
2022/04/06 03:48:48;;;;;;;7.03;5.47;;;5.70;99.90;6.40;93203.00;;;;7392531;19;20491;-76
2022/04/06 03:51:15;;;;;;;10.13;5.73;;;5.70;99.90;6.50;93195.00;;;;7393782;19;20172;-77
2022/04/06 03:53:56;;;;;;;8.33;5.50;;;5.70;99.90;6.40;93189.00;;;;7393701;19;20141;-77
2022/04/06 03:56:29;;;;;;;7.70;5.87;;;5.70;99.90;6.30;93183.00;;;;7394441;19;20585;-76
2022/04/06 03:59:04;;;;;;;7.93;6.10;;;5.70;99.90;6.30;93210.00;;;;7394060;19;20192;-76
2022/04/06 04:01:38;;;;;;;9.13;5.47;;;5.70;99.90;6.40;93196.00;;;;7392826;19;20148;-76
2022/04/06 04:04:12;;;;;;;10.10;5.87;;;5.70;99.90;6.30;93167.00;;;;7394066;19;20232;-76
2022/04/06 04:06:39;;;;;;;6.23;5.07;;;5.70;99.90;6.40;93186.00;;;;7394023;19;20611;-75
2022/04/06 04:09:07;;;;;;;7.67;5.50;;;5.70;99.90;6.30;93212.00;;;;7390808;19;20165;-76
2022/04/06 04:11:42;;;;;;;7.27;5.40;;;5.70;99.90;6.30;93191.00;;;;7394920;19;20152;-77
2022/04/06 04:14:09;;;;;;;7.67;5.50;;;5.70;99.90;6.30;93214.00;;;;7394330;19;20136;-76
2022/04/06 04:16:42;;;;;;;7.00;5.03;;;5.70;99.90;6.30;93168.00;;;;7393299;19;20133;-78
2022/04/06 04:19:17;;;;;;;6.27;5.13;;;5.70;99.90;6.30;93167.00;;;;7394342;19;20132;-76
2022/04/06 04:21:44;;;;;;;7.90;5.20;;;5.60;99.90;6.20;93187.00;;;;7393777;19;20200;-77
2022/04/06 04:24:15;;;;;;;6.53;5.03;;;5.60;99.90;6.20;93186.00;;;;7393109;19;20596;-77
2022/04/06 04:26:49;;;;;;;6.90;5.30;;;5.60;99.90;6.20;93175.00;;;;7393159;19;20494;-77
2022/04/06 04:29:17;;;;;;;7.33;4.90;;;5.60;99.90;6.10;93190.00;;;;7391632;19;20599;-77
2022/04/06 04:31:46;;;;;;;7.97;5.20;;;5.60;99.90;6.20;93180.00;;;;7393017;19;20148;-77
2022/04/06 04:34:19;;;;;;;5.97;4.53;;;5.60;99.90;6.20;93182.00;;;;7389962;19;20650;-79
2022/04/06 04:36:47;;;;;;;7.50;4.87;;;5.60;99.90;6.30;93178.00;;;;7392878;19;20633;-79
2022/04/06 04:39:14;;;;;;;7.40;4.83;;;5.60;99.90;6.20;93201.00;;;;7393322;19;20141;-78
2022/04/06 04:41:49;;;;;;;6.17;4.57;;;5.70;1.00;6.30;93191.00;;;;7392715;19;20133;-78
2022/04/06 04:44:16;;;;;;;6.23;4.60;;;5.70;1.00;6.30;93189.00;;;;7391970;19;20599;-78
2022/04/06 04:46:43;;;;;;;6.80;4.60;;;5.70;1.00;6.20;93189.00;;;;7393320;19;20157;-78
2022/04/06 04:49:16;;;;;;;5.57;4.23;;;5.70;1.00;6.10;93156.00;;;;7390420;19;20629;-78
2022/04/06 04:51:43;;;;;;;4.40;3.80;;;5.70;1.00;6.20;93160.00;;;;7392243;19;20516;-78
2022/04/06 04:54:11;;;;;;;5.60;4.27;;;5.70;1.00;6.30;93178.00;;;;7393081;19;20161;-78
2022/04/06 04:56:52;;;;;;;6.00;3.60;;;5.70;1.00;6.30;93188.00;;;;7392760;19;20148;-78
2022/04/06 04:59:19;;;;;;;7.43;4.47;;;5.70;1.00;6.30;93160.00;;;;7392357;19;20152;-78
2022/04/06 05:01:52;;;;;;;6.37;4.40;;;5.70;1.00;6.30;93193.00;;;;7392595;19;20559;-79
2022/04/06 05:04:20;;;;;;;7.07;3.70;;;5.70;1.00;6.30;93165.00;;;;7392823;19;20151;-79
2022/04/06 05:06:47;;;;;;;5.57;3.83;;;5.70;1.00;6.30;93162.00;;;;7393329;19;20144;-79
2022/04/06 05:09:23;;;;;;;4.80;3.60;;;5.70;1.00;6.30;93183.00;;;;7391188;19;20624;-79
2022/04/06 05:11:51;;;;;;;6.63;3.77;;;5.70;1.00;6.20;93155.00;;;;7393621;19;20166;-79
2022/04/06 05:14:18;;;;;;;4.13;3.47;;;5.70;1.00;6.30;93160.00;;;;7392311;19;20616;-79
2022/04/06 05:16:51;;;;;;;3.33;3.03;;;5.70;1.00;6.20;93120.00;;;;7392296;19;20161;-78
2022/04/06 05:19:19;;;;;;;5.90;3.40;;;5.70;1.00;6.20;93163.00;;;;7394119;19;20602;-78
2022/04/06 05:21:46;;;;;;;5.37;3.47;;;5.70;1.00;6.20;93154.00;;;;7392193;19;20140;-78
2022/04/06 05:24:19;;;;;;;4.27;3.30;;;5.60;1.00;6.20;93134.00;;;;7391674;19;20584;-78
2022/04/06 05:26:46;;;;;;;4.63;3.30;;;5.70;1.00;6.20;93160.00;;;;7392424;19;20140;-78
2022/04/06 05:29:14;;;;;;;4.20;2.90;;;5.70;1.00;6.20;93161.00;;;;7392053;19;20602;-79
2022/04/06 05:31:47;;;;;;;5.50;3.20;;;5.70;1.00;6.30;93139.00;;;;7393055;19;20133;-78
2022/04/06 05:34:16;;;;;;;3.30;2.97;;;5.70;1.00;6.40;93153.00;;;;7392212;19;20140;-79
2022/04/06 05:36:43;;;;;;;3.73;3.07;;;5.70;1.00;6.30;93159.00;;;;7392032;19;20595;-79
2022/04/06 05:39:16;;;;;;;3.37;2.60;;;5.70;1.00;6.30;93167.00;;;;7391778;19;20140;-79
2022/04/06 05:41:43;;;;;;;5.40;2.27;;;5.70;1.00;6.40;93142.00;;;;7391152;19;20133;-79
2022/04/06 05:44:10;;;;;;;3.83;2.60;;;5.80;1.00;6.50;93125.00;;;;7394260;19;20161;-79
2022/04/06 05:46:45;;;;;;;2.80;2.40;;;5.80;1.00;6.50;93153.00;;;;7407131;19;20120;-78
2022/04/06 05:49:12;;;;;;;6.83;2.67;;;5.80;1.00;6.50;93157.00;;;;7404100;19;20140;-78
2022/04/06 05:51:39;;;;;;;4.57;2.40;;;5.80;1.00;6.40;93168.00;;;;7408283;19;20124;-79
2022/04/06 05:54:18;;;;;;;2.60;2.40;;;5.90;1.00;6.60;93168.00;;;;7404932;19;20192;-79
2022/04/06 05:56:52;;;;;;;2.57;2.07;;;5.90;1.00;6.60;93151.00;;;;7405480;19;20147;-78
2022/04/06 05:59:25;;;;;;;2.10;1.90;;;6.00;1.00;6.60;93163.00;;;;7407631;19;20571;-78
2022/04/06 06:01:52;;;;;;;3.33;2.20;;;6.00;1.00;6.60;93179.00;;;;7404364;19;20137;-78
2022/04/06 06:04:19;;;;;;;2.77;2.10;;;6.00;1.00;6.80;93147.00;;;;7404853;19;20204;-78
2022/04/06 06:06:53;;;;;;;2.60;1.90;;;6.10;1.00;6.90;93165.00;;;;7405588;19;20129;-79
2022/04/06 06:09:21;;;;;;;2.33;1.90;;;6.20;1.00;6.80;93188.00;;;;7406603;19;20168;-79
2022/04/06 06:11:48;;;;;;;2.67;2.07;;;6.20;1.00;6.80;93164.00;;;;7405841;19;20563;-79
2022/04/06 06:14:22;;;;;;;3.10;2.07;;;6.20;1.00;6.80;93170.00;;;;7405451;19;20483;-80
2022/04/06 06:16:52;;;;;;;2.03;1.73;;;6.20;1.00;6.80;93166.00;;;;7407554;19;20140;-79
2022/04/06 06:19:20;;;;;;;2.27;1.80;;;6.20;1.00;6.90;93181.00;;;;7406701;19;20141;-79
2022/04/06 06:21:53;;;;;;;2.07;1.70;;;6.20;1.00;6.80;93164.00;;;;7405746;19;20154;-79
2022/04/06 06:24:21;;;;;;;3.83;1.97;;;6.20;1.00;6.80;93165.00;;;;7406989;19;20174;-79
2022/04/06 06:26:49;;;;;;;2.67;1.73;;;6.20;1.00;6.90;93168.00;;;;7407609;19;20153;-79
2022/04/06 06:29:23;;;;;;;3.30;1.47;;;6.20;1.00;7.10;93165.00;;;;7406221;19;20151;-79
2022/04/06 06:31:50;;;;;;;1.90;1.70;;;6.20;1.00;7.10;93155.00;;;;7415244;19;20136;-81
2022/04/06 06:34:17;;;;;;;2.07;1.60;;;6.30;1.00;7.10;93171.00;;;;7415897;19;20493;-80
2022/04/06 06:36:51;;;;;;;1.93;1.70;;;6.30;1.00;7.10;93161.00;;;;7407045;19;20228;-79
2022/04/06 06:39:18;;;;;;;2.13;1.70;;;6.40;99.90;7.30;93154.00;;;;7406338;19;20154;-79
2022/04/06 06:41:46;;;;;;;1.90;1.70;;;6.50;99.90;7.30;93158.00;;;;7409709;19;20121;-80
2022/04/06 06:44:20;;;;;;;3.37;1.50;;;6.50;99.90;7.40;93147.00;;;;7409158;19;20598;-79
2022/04/06 06:46:47;;;;;;;2.67;1.40;;;6.60;99.90;7.50;93153.00;;;;7407018;19;20128;-79
2022/04/06 06:49:16;;;;;;;1.73;1.40;;;6.50;99.90;7.40;93153.00;;;;7407200;19;20156;-79
2022/04/06 06:51:49;;;;;;;1.60;1.50;;;6.60;99.90;7.50;93138.00;;;;7410626;19;20607;-78
2022/04/06 06:54:23;;;;;;;1.70;1.40;;;6.70;99.90;7.70;93175.00;;;;7409691;19;20623;-79
2022/04/06 06:57:04;;;;;;;1.27;1.17;;;6.80;99.90;7.90;93157.00;;;;7407392;19;20137;-79
2022/04/06 06:59:31;;;;;;;1.60;1.50;;;6.80;1.00;7.70;93154.00;;;;7403577;19;20125;-78
2022/04/06 07:02:06;;;;;;;1.63;1.47;;;6.90;1.00;7.80;93139.00;;;;7399454;19;20141;-78
2022/04/06 07:04:33;;;;;;;2.53;1.30;;;7.00;99.90;8.10;93133.00;;;;7397684;19;20140;-78
2022/04/06 07:07:00;;;;;;;1.50;1.40;;;7.00;99.90;7.60;93160.00;;;;7400246;19;20140;-78
2022/04/06 07:09:33;;;;;;;1.90;1.50;;;7.00;99.90;8.00;93146.00;;;;7398252;19;20156;-78
2022/04/06 07:12:01;;;;;;;2.50;1.20;;;7.20;59.30;7.80;93120.00;;;;7397949;19;20148;-77
2022/04/06 07:14:28;;;;;;;1.10;1.00;;;7.30;1.00;7.80;93157.00;;;;7397651;19;20137;-79
2022/04/06 07:17:02;;;;;;;1.20;1.10;;;7.30;99.90;7.90;93122.00;;;;7396353;19;20161;-79
2022/04/06 07:19:29;;;;;;;2.17;1.33;;;7.30;99.90;7.80;93141.00;;;;7394768;19;20144;-78
2022/04/06 07:21:59;;;;;;;1.20;1.10;;;7.20;99.90;8.00;93125.00;;;;7396369;19;20140;-79
2022/04/06 07:24:32;;;;;;;1.53;1.43;;;7.20;99.90;7.80;93147.00;;;;7397653;19;20200;-77
2022/04/06 07:27:00;;;;;;;1.47;1.30;;;7.30;13.90;7.80;93154.00;;;;7395270;19;20137;-80
2022/04/06 07:29:27;;;;;;;1.40;1.10;;;7.30;99.90;7.80;93156.00;;;;7393820;19;20607;-79
2022/04/06 07:32:01;;;;;;;1.50;1.40;;;7.40;86.90;8.10;93126.00;;;;7397191;19;20144;-79
2022/04/06 07:34:28;;;;;;;3.07;1.40;;;7.40;1.00;8.00;93120.00;;;;7395868;19;20137;-78
2022/04/06 07:36:55;;;;;;;1.43;1.27;;;7.30;1.00;8.00;93138.00;;;;7396615;19;20790;-80
2022/04/06 07:39:30;;;;;;;1.40;1.30;;;7.40;1.00;8.30;93157.00;;;;7396165;19;20137;-79
2022/04/06 07:41:57;;;;;;;1.40;1.07;;;7.50;1.00;8.50;93129.00;;;;7394268;19;20141;-77
2022/04/06 07:44:24;;;;;;;1.43;1.33;;;7.40;1.00;8.20;93156.00;;;;7394527;19;20152;-78
2022/04/06 07:46:58;;;;;;;1.13;1.03;;;7.60;1.00;8.40;93156.00;;;;7395356;19;20488;-77
2022/04/06 07:49:26;;;;;;;1.83;1.40;;;7.70;1.00;8.60;93147.00;;;;7392910;19;20164;-79
2022/04/06 07:51:53;;;;;;;3.00;1.50;;;7.80;1.00;8.70;93143.00;;;;7394502;19;20133;-78
2022/04/06 07:54:33;;;;;;;2.50;1.40;;;7.90;1.00;9.00;93124.00;;;;7391485;19;20176;-79
2022/04/06 07:57:07;;;;;;;1.30;1.20;;;8.00;99.90;9.60;93126.00;;;;7394103;19;20141;-79
2022/04/06 07:59:40;;;;;;;1.30;1.20;;;8.20;99.90;10.00;93124.00;;;;7389326;19;20137;-79
2022/04/06 08:02:08;;;;;;;1.73;1.33;;;8.50;1.00;10.30;93049.00;;;;7389418;19;20153;-79
2022/04/06 08:04:36;;;;;;;1.67;1.53;;;8.70;1.00;11.20;93082.00;;;;7389975;19;20133;-74
2022/04/06 08:07:10;;;;;;;0.90;0.90;;;9.00;99.90;11.10;93134.00;;;;7390737;19;20137;-78
2022/04/06 08:09:37;;;;;;;1.90;1.25;;;9.20;1.00;10.20;93132.00;;;;7387642;19;20173;-78
2022/04/06 08:12:05;;;;;;;2.28;1.23;;;9.00;99.90;9.50;93143.00;;;;7392011;19;20141;-80
2022/04/06 08:14:39;;;;;;;1.30;1.20;;;8.90;50.70;9.80;92972.00;;;;7391348;19;20141;-80
2022/04/06 08:17:07;;;;;;;1.53;1.40;;;8.60;99.90;9.40;93086.00;;;;7390649;19;20141;-79
2022/04/06 08:19:35;;;;;;;1.27;1.17;;;8.30;99.90;9.30;92995.00;;;;7391131;19;20502;-80
2022/04/06 08:22:09;;;;;;;1.67;1.30;;;8.30;99.90;9.30;93134.00;;;;7390478;19;20136;-80
2022/04/06 08:24:37;;;;;;;1.43;1.13;;;8.40;1.00;8.90;93058.00;;;;7390339;19;20144;-79
2022/04/06 08:27:06;;;;;;;1.70;1.50;;;8.40;99.90;9.40;93004.00;;;;7392742;19;20181;-79
2022/04/06 08:29:39;;;;;;;1.43;1.13;;;8.30;99.90;9.30;93172.00;;;;7391672;19;20151;-81
2022/04/06 08:32:07;;;;;;;1.93;1.40;;;8.30;99.90;9.10;93132.00;;;;7392667;19;20165;-79
2022/04/06 08:34:36;;;;;;;1.27;1.17;;;8.20;99.90;9.10;93133.00;;;;7394444;19;20168;-81
2022/04/06 08:37:12;;;;;;;1.53;1.40;;;8.50;99.90;9.20;93026.00;;;;7393415;19;20151;-83
2022/04/06 08:39:42;;;;;;;2.30;1.30;;;8.60;99.90;9.80;93079.00;;;;7389743;19;20140;-79
2022/04/06 08:42:32;;;;;;;1.30;1.20;;;8.80;1.00;9.70;93120.00;;;;7391617;19;20128;-81
2022/04/06 08:45:10;;;;;;;1.30;1.20;;;8.80;1.00;10.40;93155.00;;;;7395477;19;20132;-83
2022/04/06 08:47:51;;;;;;;1.30;1.20;;;9.10;1.00;10.70;92973.00;;;;7394252;19;20136;-81
2022/04/06 08:50:29;;;;;;;1.83;1.00;;;9.40;1.00;11.00;93060.00;;;;7390898;19;20147;-79
2022/04/06 08:53:03;;;;;;;0.80;0.80;;;9.70;99.90;10.70;93115.00;;;;7390140;19;20729;-79
2022/04/06 08:55:44;;;;;;;0.85;0.73;;;9.80;99.90;10.40;93112.00;;;;7391348;19;20172;-80
2022/04/06 08:58:12;;;;;;;0.75;0.70;;;9.50;99.90;10.40;93129.00;;;;7394145;19;20133;-79
2022/04/06 09:00:46;;;;;;;0.70;0.70;;;9.50;99.90;10.50;93126.00;;;;7392346;19;20136;-79
2022/04/06 09:03:16;;;;;;;0.70;0.70;;;9.40;1.00;10.40;92999.00;;;;7392637;19;20620;-80
2022/04/06 09:05:44;;;;;;;0.50;0.50;;;9.50;1.00;10.50;93139.00;;;;7392531;19;20137;-81
2022/04/06 09:08:17;;;;;;;0.77;0.77;;;9.40;99.90;10.10;93118.00;;;;7392587;19;20133;-78
2022/04/06 09:10:45;;;;;;;0.63;0.57;;;9.30;1.00;10.20;93121.00;;;;7390840;19;20172;-80
2022/04/06 09:13:20;;;;;;;1.30;0.63;;;9.10;25.60;10.00;93152.00;;;;7392940;19;20141;-78
2022/04/06 09:16:21;;;;;;;0.60;0.60;;;9.10;38.20;10.10;93141.00;;;;7391574;19;20154;-78
2022/04/06 09:18:56;;;;;;;0.60;0.60;;;9.20;19.40;10.10;93014.00;;;;7392096;19;20482;-77
2022/04/06 09:21:30;;;;;;;0.80;0.47;;;9.20;1.00;10.20;93123.00;;;;7394133;19;20599;-78
2022/04/06 09:23:59;;;;;;;0.40;0.40;;;9.30;1.00;10.30;93121.00;;;;7392711;19;20466;-76
2022/04/06 09:26:26;;;;;;;0.40;0.40;;;9.40;1.00;10.10;93141.00;;;;7393566;19;20129;-78
2022/04/06 09:29:00;;;;;;;0.55;0.45;;;9.30;1.00;10.40;93126.00;;;;7392205;19;20476;-79
2022/04/06 09:31:38;;;;;;;0.30;0.30;;;9.50;1.00;10.50;93132.00;;;;7393277;19;20131;-81
2022/04/06 09:34:13;;;;;;;0.38;0.38;;;9.60;1.00;11.10;93114.00;;;;7391769;19;20212;-80
2022/04/06 09:36:40;;;;;;;0.30;0.30;;;9.90;1.00;11.50;93082.00;;;;7392585;19;20136;-81
2022/04/06 09:39:07;;;;;;;0.43;0.38;;;10.10;1.00;10.80;93129.00;;;;7392783;19;20153;-78
2022/04/06 09:42:00;;;;;;;0.43;0.43;;;10.10;99.90;10.80;93137.00;;;;7392074;19;20208;-79
2022/04/06 09:47:41;;;;;;;1.08;0.60;;;10.00;99.90;10.70;93113.00;;;;7392227;19;20152;-84
2022/04/06 09:50:23;;;;;;;1.15;0.82;;;9.90;99.90;11.10;93129.00;;;;7394584;19;20161;-81
2022/04/06 09:52:57;;;;;;;0.20;0.20;;;10.10;99.90;11.30;93099.00;;;;7391700;19;20749;-76
2022/04/06 09:55:37;;;;;;;1.45;0.40;;;10.00;99.90;10.70;93131.00;;;;7389739;19;20192;-76
2022/04/06 09:58:14;;;;;;;0.60;0.60;;;10.00;99.90;10.80;93113.00;;;;7391939;19;20136;-77
2022/04/06 10:00:42;;;;;;;0.63;0.57;;;10.00;99.90;11.50;93107.00;;;;7390846;19;20137;-76
2022/04/06 10:03:15;;;;;;;0.50;0.50;;;10.20;99.90;11.60;93111.00;;;;7391804;19;20554;-76
2022/04/06 10:05:51;;;;;;;0.43;0.43;;;10.40;99.90;12.30;93099.00;;;;7391611;19;20140;-77
2022/04/06 10:08:21;;;;;;;0.60;0.50;;;10.80;99.90;13.10;93083.00;;;;7390807;19;20133;-75
2022/04/06 10:10:53;;;;;;;0.75;0.50;;;11.40;99.90;13.30;93097.00;;;;7389187;19;20168;-77
2022/04/06 10:13:27;;;;;;;0.50;0.50;;;12.00;14.40;13.60;93090.00;;;;7392107;19;20132;-80
2022/04/06 10:16:17;;;;;;;0.80;0.77;;;12.60;1.00;13.00;93089.00;;;;7391612;19;20549;-77
2022/04/06 10:18:53;;;;;;;2.88;1.10;;;12.30;1.00;11.90;93099.00;;;;7390329;19;20133;-76
2022/04/06 10:21:56;;;;;;;1.48;0.85;;;11.50;1.00;12.00;93077.00;;;;7391398;19;20873;-73
2022/04/06 10:25:24;;;;;;;0.60;0.60;;;11.00;1.00;13.30;93090.00;;;;7390433;19;20191;-76
2022/04/06 10:27:56;;;;;;;0.60;0.60;;;11.60;1.00;12.60;93069.00;;;;7391873;19;20595;-78
2022/04/06 10:30:31;;;;;;;0.70;0.70;;;11.70;1.00;12.60;93090.00;;;;7389932;19;20159;-77
2022/04/06 10:32:59;;;;;;;0.73;0.73;;;11.80;1.00;12.70;93060.00;;;;7396684;19;20223;-78
2022/04/06 10:35:35;;;;;;;1.02;0.70;;;11.60;1.00;13.30;93053.00;;;;7398587;19;20144;-79
2022/04/06 10:38:08;;;;;;;1.40;0.70;;;11.80;11.30;13.40;93076.00;;;;7392243;19;20133;-76
2022/04/06 10:40:53;;;;;;;0.82;0.65;;;12.20;1.00;14.00;93052.00;;;;7392258;19;20503;-78
2022/04/06 10:43:39;;;;;;;0.88;0.80;;;12.30;1.00;14.10;93075.00;;;;7391901;19;20137;-77
2022/04/06 10:46:15;;;;;;;0.85;0.85;;;12.40;1.00;14.00;93051.00;;;;7391803;19;20591;-76
2022/04/06 10:49:09;;;;;;;0.63;0.63;;;12.50;1.00;12.90;93086.00;;;;7391013;19;20204;-78
2022/04/06 10:51:45;;;;;;;0.75;0.75;;;12.30;1.00;12.90;93058.00;;;;7391128;19;20768;-76
2022/04/06 10:54:34;;;;;;;1.63;0.95;;;12.10;1.00;13.00;93058.00;;;;7392633;19;20629;-76
2022/04/06 10:57:08;;;;;;;1.30;0.73;;;12.00;1.00;14.40;93056.00;;;;7394391;19;20197;-78
2022/04/06 10:59:42;;;;;;;0.50;0.50;;;12.90;1.00;14.20;93041.00;;;;7392312;19;20208;-75
2022/04/06 11:02:25;;;;;;;0.63;0.63;;;12.90;1.00;13.00;93054.00;;;;7391098;19;20619;-74
2022/04/06 11:04:59;;;;;;;0.65;0.65;;;12.60;1.00;13.80;93030.00;;;;7392290;19;20611;-78
2022/04/06 11:10:28;;;;;;;0.73;0.68;;;12.30;1.00;13.40;93033.00;;;;7390307;19;20140;-77
2022/04/06 11:13:00;;;;;;;0.93;0.60;;;12.20;1.00;12.90;93045.00;;;;7391995;19;20117;-74
2022/04/06 11:15:40;;;;;;;0.50;0.50;;;12.10;1.00;13.70;93031.00;;;;7389646;19;20152;-77
2022/04/06 11:18:48;;;;;;;0.32;0.32;;;12.40;1.00;13.50;93041.00;;;;7389456;19;20718;-78
2022/04/06 11:21:16;;;;;;;0.60;0.60;;;12.30;1.00;12.50;93018.00;;;;7390986;19;20153;-76
2022/04/06 11:23:50;;;;;;;0.60;0.60;;;12.10;1.00;12.90;93012.00;;;;7391848;19;20141;-78
2022/04/06 11:26:17;;;;;;;0.80;0.68;;;11.90;1.00;14.20;93004.00;;;;7392035;19;20136;-80
2022/04/06 11:28:54;;;;;;;0.55;0.55;;;12.40;1.00;15.70;93038.00;;;;7391497;19;20145;-78
2022/04/06 11:31:27;;;;;;;0.60;0.60;;;13.40;1.00;14.50;93013.00;;;;7391673;19;20149;-75
2022/04/06 11:33:55;;;;;;;0.75;0.70;;;13.70;1.00;13.20;93012.00;;;;7389809;19;20132;-77
2022/04/06 11:36:22;;;;;;;1.02;0.70;;;13.20;1.00;13.00;93055.00;;;;7391063;19;20145;-78
2022/04/06 11:38:56;;;;;;;0.73;0.50;;;12.80;1.00;13.00;93044.00;;;;7390850;19;20137;-78
2022/04/06 11:41:23;;;;;;;1.55;0.82;;;12.20;1.00;12.60;92995.00;;;;7390001;19;20149;-75